Time;durP1;ratioP1;P1;durP2;ratioP2;P2;SDS_P1;SDS_P2;PMS_P1;PMS_P2;Temp;Humidity;BMP_temperature;BMP_pressure;BME280_temperature;BME280_humidity;BME280_pressure;Samples;Min_cycle;Max_cycle;Signal;HPM_P1;HPM_P2
2021/06/06 00:00:30;;;;;;;6.07;5.47;;;;;;;16.62;58.68;94043.16;4937827;28;20035;-80
2021/06/06 00:02:55;;;;;;;6.97;6.20;;;;;;;16.61;58.84;94045.06;4936034;28;20504;-80
2021/06/06 00:05:25;;;;;;;10.73;6.75;;;;;;;16.52;59.11;94032.84;4935419;28;20070;-80
2021/06/06 00:07:50;;;;;;;7.40;5.70;;;;;;;16.44;59.96;94039.75;4933654;28;20047;-80
2021/06/06 00:10:16;;;;;;;10.95;6.78;;;;;;;16.44;60.79;94042.41;4937942;28;20039;-80
2021/06/06 00:12:42;;;;;;;7.78;6.35;;;;;;;16.41;61.00;94030.50;4938620;28;20042;-80
2021/06/06 00:15:11;;;;;;;7.85;6.22;;;;;;;16.40;60.91;94039.59;4935370;28;20120;-80
2021/06/06 00:17:37;;;;;;;8.63;5.85;;;;;;;16.37;60.52;94044.81;4932874;28;20051;-80
2021/06/06 00:20:10;;;;;;;7.30;6.20;;;;;;;16.34;60.92;94034.75;4935649;28;20043;-80
2021/06/06 00:22:37;;;;;;;6.63;5.70;;;;;;;16.34;60.32;94035.53;4935356;28;20515;-80
2021/06/06 00:25:08;;;;;;;8.45;6.53;;;;;;;16.26;61.18;94032.91;4935169;28;20035;-80
2021/06/06 00:27:37;;;;;;;8.00;6.50;;;;;;;16.10;62.04;94027.28;4933702;28;20110;-80
2021/06/06 00:30:07;;;;;;;10.70;6.72;;;;;;;16.15;62.26;94037.78;4937150;28;20042;-80
2021/06/06 00:32:32;;;;;;;7.40;6.28;;;;;;;15.97;62.54;94023.72;4935397;28;20050;-80
2021/06/06 00:34:57;;;;;;;9.80;6.43;;;;;;;15.91;63.95;94032.19;4937849;28;20040;-80
2021/06/06 00:37:23;;;;;;;7.88;6.78;;;;;;;15.93;63.69;94041.41;4935702;28;21135;-80
2021/06/06 00:39:48;;;;;;;7.38;6.63;;;;;;;15.92;63.85;94039.06;4934288;28;20034;-79
2021/06/06 00:42:18;;;;;;;8.55;7.75;;;;;;;15.89;63.83;94043.13;4933955;28;20056;-79
2021/06/06 00:44:44;;;;;;;10.95;7.50;;;;;;;15.86;64.10;94037.66;4936073;28;20039;-80
2021/06/06 00:47:09;;;;;;;8.85;7.75;;;;;;;15.77;64.65;94039.56;4938619;28;20051;-80
2021/06/06 00:49:35;;;;;;;12.25;8.07;;;;;;;15.69;64.90;94035.78;4935965;28;20038;-79
2021/06/06 00:52:06;;;;;;;9.75;7.75;;;;;;;15.65;65.32;94037.50;4935754;28;20035;-80
2021/06/06 00:54:38;;;;;;;9.20;7.35;;;;;;;15.58;65.83;94038.00;4939649;28;20027;-80
2021/06/06 00:57:14;;;;;;;8.75;7.72;;;;;;;15.56;65.67;94029.53;4934356;28;20035;-80
2021/06/06 00:59:42;;;;;;;7.97;7.13;;;;;;;15.56;65.80;94042.06;4933741;28;20487;-80
2021/06/06 01:02:08;;;;;;;8.10;7.35;;;;;;;15.52;65.89;94043.78;4936309;28;20043;-80
2021/06/06 01:04:38;;;;;;;7.90;7.05;;;;;;;15.51;66.21;94043.00;4932424;28;20050;-80
2021/06/06 01:07:04;;;;;;;8.93;7.03;;;;;;;15.53;65.80;94042.69;4935405;28;20540;-80
2021/06/06 01:09:30;;;;;;;8.55;7.75;;;;;;;15.48;65.31;94038.28;4924356;28;20037;-80
2021/06/06 01:12:26;;;;;;;9.35;7.78;;;;;;;15.47;65.80;94033.25;4933812;28;20043;-79
2021/06/06 01:14:58;;;;;;;8.73;7.28;;;;;;;15.49;65.93;94031.06;4935697;28;20048;-80
2021/06/06 01:18:02;;;;;;;10.55;8.07;;;;;;;15.48;66.21;94034.81;4919750;28;20496;-80
2021/06/06 01:20:53;;;;;;;8.80;7.20;;;;;;;15.43;66.42;94032.31;4887665;28;20054;-80
2021/06/06 01:23:27;;;;;;;8.90;8.05;;;;;;;15.43;66.29;94027.00;4933170;28;20508;-80
2021/06/06 01:25:59;;;;;;;8.97;8.10;;;;;;;15.40;66.81;94024.94;4917141;28;20044;-80
2021/06/06 01:28:45;;;;;;;8.40;7.60;;;;;;;15.40;66.99;94024.94;4926834;28;20286;-80
2021/06/06 01:31:14;;;;;;;9.13;7.75;;;;;;;15.28;66.86;94008.81;4932250;28;20511;-80
2021/06/06 01:33:48;;;;;;;9.52;7.55;;;;;;;15.27;66.93;94007.22;4915279;29;20159;-79
2021/06/06 01:36:23;;;;;;;11.52;7.65;;;;;;;15.26;67.41;94010.97;4937018;28;20385;-80
2021/06/06 01:38:52;;;;;;;12.70;8.30;;;;;;;15.21;67.67;94016.47;4939714;28;20039;-80
2021/06/06 01:41:21;;;;;;;8.57;7.55;;;;;;;15.10;67.82;94002.69;4940672;28;20042;-80
2021/06/06 01:43:52;;;;;;;9.48;8.43;;;;;;;15.03;68.04;94008.47;4940460;28;20073;-80
2021/06/06 01:46:25;;;;;;;9.00;8.02;;;;;;;15.05;68.33;94005.50;4939649;28;20118;-79
2021/06/06 01:48:52;;;;;;;9.82;8.05;;;;;;;15.01;68.95;94010.63;4931961;28;20034;-80
2021/06/06 01:51:27;;;;;;;9.57;8.60;;;;;;;14.95;68.96;93998.59;4934939;28;20449;-80
2021/06/06 01:53:54;;;;;;;8.37;7.57;;;;;;;14.88;69.57;93994.81;4915853;28;20134;-80
2021/06/06 01:56:23;;;;;;;9.48;8.57;;;;;;;14.82;69.66;93991.50;4935242;28;20718;-80
2021/06/06 01:58:53;;;;;;;9.57;8.73;;;;;;;14.81;69.97;93994.50;4937565;28;20062;-79
2021/06/06 02:01:22;;;;;;;11.27;8.30;;;;;;;14.84;70.11;93997.31;4920236;28;20042;-80
2021/06/06 02:03:52;;;;;;;10.75;8.98;;;;;;;14.77;69.92;93983.66;4939244;28;20182;-80
2021/06/06 02:06:26;;;;;;;10.90;9.07;;;;;;;14.72;70.33;93981.16;4938057;28;20035;-80
2021/06/06 02:08:56;;;;;;;9.57;8.27;;;;;;;14.81;70.16;93983.84;4935984;28;20043;-80
2021/06/06 02:11:38;;;;;;;9.23;8.32;;;;;;;14.69;70.26;93979.13;4936491;28;20043;-80
2021/06/06 02:14:11;;;;;;;10.02;8.68;;;;;;;14.68;70.61;93974.88;4932864;28;20059;-80
2021/06/06 02:16:47;;;;;;;9.70;8.70;;;;;;;14.66;70.87;93985.06;4918628;29;20032;-80
2021/06/06 02:19:13;;;;;;;10.32;9.30;;;;;;;14.67;71.32;93978.63;4930416;28;20190;-80
2021/06/06 02:21:38;;;;;;;9.23;7.95;;;;;;;14.55;71.59;93971.25;4902998;29;20087;-80
2021/06/06 02:24:05;;;;;;;9.50;8.57;;;;;;;14.54;71.64;93976.88;4915190;28;20559;-80
2021/06/06 02:26:41;;;;;;;9.20;8.27;;;;;;;14.56;71.70;93988.75;4939613;28;20403;-80
2021/06/06 02:29:38;;;;;;;9.77;8.73;;;;;;;14.52;71.64;93982.50;4923308;28;20047;-80
2021/06/06 02:32:12;;;;;;;10.40;8.82;;;;;;;14.43;72.32;93981.69;4917497;28;20557;-80
2021/06/06 02:34:52;;;;;;;11.30;9.07;;;;;;;14.48;71.91;93970.91;4936046;28;20039;-80
2021/06/06 02:37:55;;;;;;;9.75;8.82;;;;;;;14.50;71.96;93978.59;4938561;28;20048;-80
2021/06/06 02:40:35;;;;;;;12.77;9.18;;;;;;;14.41;72.18;93969.81;4938568;28;20066;-80
2021/06/06 02:43:11;;;;;;;9.30;8.32;;;;;;;14.39;72.35;93971.97;4938798;28;20935;-80
2021/06/06 02:45:37;;;;;;;12.27;9.00;;;;;;;14.36;72.66;93961.94;4938955;28;20025;-80
2021/06/06 02:48:14;;;;;;;10.00;9.00;;;;;;;14.37;72.75;93974.19;4927017;28;20455;-81
2021/06/06 02:50:41;;;;;;;11.00;9.77;;;;;;;14.36;72.86;93983.22;4940756;28;20070;-80
2021/06/06 02:53:19;;;;;;;11.70;9.98;;;;;;;14.24;73.33;93968.59;4939350;28;20046;-80
2021/06/06 02:55:48;;;;;;;10.57;9.50;;;;;;;14.15;73.32;93967.78;4941498;28;20404;-80
2021/06/06 02:58:32;;;;;;;11.15;9.27;;;;;;;14.28;73.43;93976.75;4927016;28;20047;-80
2021/06/06 03:01:21;;;;;;;10.43;9.38;;;;;;;14.31;73.09;93966.31;4940796;28;20027;-80
2021/06/06 03:03:48;;;;;;;10.57;9.57;;;;;;;14.41;72.88;93964.50;4939692;28;20031;-79
2021/06/06 03:06:54;;;;;;;10.10;8.98;;;;;;;14.69;72.54;93987.88;4940332;28;20087;-80
2021/06/06 03:09:20;;;;;;;10.48;8.60;;;;;;;14.96;71.47;93986.84;4869128;29;20044;-80
2021/06/06 03:11:48;;;;;;;11.48;9.45;;;;;;;15.07;70.62;93976.69;4930521;28;20116;-80
2021/06/06 03:14:20;;;;;;;10.82;9.13;;;;;;;15.34;69.83;93988.94;4936987;28;20142;-80
2021/06/06 03:17:05;;;;;;;13.40;8.82;;;;;;;15.48;68.29;93970.91;4926703;28;20047;-80
2021/06/06 03:19:36;;;;;;;10.07;8.35;;;;;;;15.54;68.29;93959.78;4912909;28;20081;-80
2021/06/06 03:22:04;;;;;;;10.75;8.77;;;;;;;16.10;66.60;93997.16;4915694;28;20027;-81
2021/06/06 03:24:35;;;;;;;9.57;8.10;;;;;;;16.50;65.08;93995.00;4940061;28;20019;-81
2021/06/06 03:27:04;;;;;;;10.43;8.25;;;;;;;16.78;63.50;93988.94;4940845;28;20051;-80
2021/06/06 03:29:33;;;;;;;8.40;7.60;;;;;;;17.01;62.65;93977.97;4937805;28;20137;-81
2021/06/06 03:32:11;;;;;;;8.13;7.32;;;;;;;17.39;61.48;93984.00;4919528;29;20146;-81
2021/06/06 03:34:37;;;;;;;11.27;7.28;;;;;;;17.73;60.21;93974.94;4937127;28;20043;-81
2021/06/06 03:37:04;;;;;;;8.65;7.72;;;;;;;18.05;58.86;93966.13;4937234;28;20023;-81
2021/06/06 03:39:29;;;;;;;7.25;6.10;;;;;;;18.28;58.22;93961.16;4940430;28;20111;-80
2021/06/06 03:41:58;;;;;;;6.88;6.03;;;;;;;18.45;57.91;93966.31;4938972;28;20089;-80
2021/06/06 03:44:24;;;;;;;13.85;7.35;;;;;;;18.76;57.34;93971.16;4937015;28;20087;-80
2021/06/06 03:46:54;;;;;;;13.80;7.35;;;;;;;18.96;56.52;93948.06;4935215;28;20582;-81
2021/06/06 03:49:20;;;;;;;9.13;7.28;;;;;;;19.23;55.21;93925.13;4939257;28;20039;-81
2021/06/06 03:51:47;;;;;;;10.43;8.65;;;;;;;20.10;52.88;93974.28;4937264;28;20110;-81
2021/06/06 03:54:13;;;;;;;10.45;8.00;;;;;;;20.16;51.97;93942.63;4937676;28;20603;-81
2021/06/06 03:56:41;;;;;;;10.57;8.10;;;;;;;20.66;50.94;93963.47;4938146;28;20130;-81
2021/06/06 03:59:07;;;;;;;8.95;8.10;;;;;;;20.84;49.82;93950.44;4938064;28;20134;-81
2021/06/06 04:01:33;;;;;;;9.55;8.23;;;;;;;21.26;48.74;93969.47;4924037;28;20146;-81
2021/06/06 04:03:58;;;;;;;13.55;9.23;;;;;;;21.53;47.82;93963.13;4896929;28;20042;-81
2021/06/06 04:06:24;;;;;;;13.55;8.60;;;;;;;21.88;47.12;93958.47;4937197;28;20051;-81
2021/06/06 04:08:50;;;;;;;14.32;8.60;;;;;;;22.52;45.44;93959.66;4920686;28;20050;-81
2021/06/06 04:11:17;;;;;;;12.93;10.38;;;;;;;22.34;45.60;93955.88;4937958;28;20051;-81
2021/06/06 04:13:42;;;;;;;9.43;8.15;;;;;;;22.67;45.50;93952.59;4926504;28;20043;-81
2021/06/06 04:16:09;;;;;;;16.73;9.70;;;;;;;22.99;44.69;93950.41;4933067;28;20500;-81
2021/06/06 04:18:36;;;;;;;12.18;9.07;;;;;;;23.27;43.69;93956.22;4940490;28;20027;-81
2021/06/06 04:21:12;;;;;;;12.55;9.55;;;;;;;23.00;44.51;93968.94;4939931;28;20685;-82
2021/06/06 04:23:37;;;;;;;13.00;8.75;;;;;;;23.53;43.47;93969.72;4934234;28;20051;-80
2021/06/06 04:26:03;;;;;;;10.40;9.40;;;;;;;23.62;42.49;93962.13;4914952;28;20050;-82
2021/06/06 04:28:29;;;;;;;12.52;8.60;;;;;;;24.03;41.87;93965.69;4923718;28;20385;-81
2021/06/06 04:30:55;;;;;;;9.38;8.43;;;;;;;24.67;40.53;93973.69;4935498;28;20031;-81
2021/06/06 04:33:22;;;;;;;9.38;8.40;;;;;;;24.79;39.76;93959.88;4938975;28;20475;-81
2021/06/06 04:35:48;;;;;;;11.52;8.75;;;;;;;25.06;39.79;93969.41;4937366;28;20499;-81
2021/06/06 04:38:20;;;;;;;9.30;8.40;;;;;;;25.69;38.73;93947.41;4919614;28;20541;-80
2021/06/06 04:40:47;;;;;;;9.73;8.73;;;;;;;26.27;37.65;93971.63;4939587;28;20058;-81
2021/06/06 04:43:13;;;;;;;10.00;8.77;;;;;;;27.09;36.23;93969.78;4937623;28;20334;-81
2021/06/06 04:45:38;;;;;;;13.05;8.68;;;;;;;26.85;36.59;93970.53;4940344;28;20042;-81
2021/06/06 04:48:19;;;;;;;15.15;9.27;;;;;;;27.50;35.76;93972.09;4937507;28;20511;-81
2021/06/06 04:50:49;;;;;;;13.13;9.10;;;;;;;28.04;35.11;93972.72;4936814;28;20062;-81
2021/06/06 04:53:14;;;;;;;8.65;7.75;;;;;;;28.30;33.71;93972.22;4924501;28;20544;-82
2021/06/06 04:55:40;;;;;;;8.10;7.38;;;;;;;28.78;33.79;93984.00;4939088;28;20047;-81
2021/06/06 04:58:14;;;;;;;12.88;9.30;;;;;;;28.80;32.55;93978.94;4939248;28;20023;-82
2021/06/06 05:00:41;;;;;;;10.13;7.65;;;;;;;29.04;33.02;93987.31;4921086;28;20031;-81
2021/06/06 05:03:08;;;;;;;11.52;8.50;;;;;;;29.81;31.17;93980.38;4934608;28;20145;-81
2021/06/06 05:05:34;;;;;;;10.50;7.78;;;;;;;30.10;30.92;93967.25;4921234;28;20123;-81
2021/06/06 05:08:01;;;;;;;12.40;8.13;;;;;;;30.48;30.04;93968.72;4937095;28;20411;-81
2021/06/06 05:10:30;;;;;;;16.40;8.13;;;;;;;30.09;30.59;93971.16;4926867;28;20061;-81
2021/06/06 05:12:55;;;;;;;10.82;6.82;;;;;;;30.90;29.55;93966.56;4936248;28;20137;-81
2021/06/06 05:15:22;;;;;;;13.57;7.53;;;;;;;31.33;28.73;93964.69;4940491;28;20476;-81
2021/06/06 05:17:48;;;;;;;8.27;5.72;;;;;;;31.70;28.01;93952.00;4942425;28;20129;-80
2021/06/06 05:20:16;;;;;;;7.88;6.75;;;;;;;32.03;28.16;93956.41;4937465;28;20074;-80
2021/06/06 05:22:42;;;;;;;7.05;6.25;;;;;;;32.50;26.89;93956.25;4919478;28;20061;-81
2021/06/06 05:25:08;;;;;;;9.52;6.25;;;;;;;33.08;26.78;93960.81;4921752;28;20662;-80
2021/06/06 05:27:34;;;;;;;11.43;6.18;;;;;;;33.72;25.85;93944.75;4942294;28;20114;-80
2021/06/06 05:30:00;;;;;;;8.02;7.00;;;;;;;31.98;27.45;93953.38;4942619;28;20110;-81
2021/06/06 05:32:25;;;;;;;14.48;6.95;;;;;;;32.52;26.78;93953.84;4935927;28;20457;-82
2021/06/06 05:34:51;;;;;;;9.55;7.18;;;;;;;32.10;27.13;93956.31;4942349;28;20492;-82
2021/06/06 05:37:17;;;;;;;12.48;7.18;;;;;;;32.78;26.88;93949.41;4939467;28;20431;-81
2021/06/06 05:39:44;;;;;;;8.38;7.00;;;;;;;32.99;26.78;93957.88;4944500;28;20624;-79
2021/06/06 05:42:13;;;;;;;9.57;6.90;;;;;;;33.83;25.48;93951.47;4938498;28;20408;-81
2021/06/06 05:44:38;;;;;;;9.05;6.45;;;;;;;33.23;26.27;93944.06;4941182;28;20478;-81
2021/06/06 05:47:07;;;;;;;9.90;7.20;;;;;;;33.73;25.49;93947.06;4924076;28;20090;-82
2021/06/06 05:49:33;;;;;;;7.55;6.00;;;;;;;34.06;25.91;93946.97;4940575;28;20188;-79
2021/06/06 05:51:58;;;;;;;9.38;7.05;;;;;;;33.71;25.68;93948.69;4931924;28;20084;-81
2021/06/06 05:54:24;;;;;;;13.52;6.93;;;;;;;34.11;24.68;93949.16;4942656;28;20015;-82
2021/06/06 05:56:49;;;;;;;8.90;6.65;;;;;;;34.74;24.48;93958.31;4923487;28;20035;-83
2021/06/06 05:59:15;;;;;;;11.73;7.03;;;;;;;34.32;23.98;93962.28;4940171;28;20035;-81
2021/06/06 06:01:40;;;;;;;10.77;6.85;;;;;;;34.97;24.66;93953.69;4939773;28;20039;-81
2021/06/06 06:04:06;;;;;;;9.88;7.00;;;;;;;35.77;23.83;93951.47;4923947;28;20034;-81
2021/06/06 06:06:32;;;;;;;10.63;6.90;;;;;;;35.79;22.82;93957.28;4941938;28;20239;-81
2021/06/06 06:08:57;;;;;;;9.85;7.10;;;;;;;34.50;24.37;93962.56;4940919;28;20070;-81
2021/06/06 06:11:23;;;;;;;8.05;6.30;;;;;;;35.56;23.24;93956.47;4928857;28;20047;-81
2021/06/06 06:13:50;;;;;;;9.07;6.15;;;;;;;35.79;23.89;93957.28;4939844;28;20139;-82
2021/06/06 06:16:20;;;;;;;10.82;6.78;;;;;;;37.17;22.13;93952.94;4939483;28;20043;-80
2021/06/06 06:18:49;;;;;;;12.52;6.53;;;;;;;37.74;20.77;93939.56;4940750;28;20659;-82
2021/06/06 06:21:16;;;;;;;9.60;6.50;;;;;;;38.27;20.94;93953.06;4938128;28;20408;-81
2021/06/06 06:23:42;;;;;;;7.70;6.40;;;;;;;38.74;20.00;93953.28;4931744;28;20046;-82
2021/06/06 06:26:09;;;;;;;7.10;6.50;;;;;;;38.40;20.59;93954.41;4940114;28;20293;-81
2021/06/06 06:28:37;;;;;;;8.27;6.80;;;;;;;37.97;20.95;93952.00;4940993;28;20101;-81
2021/06/06 06:31:06;;;;;;;11.30;6.88;;;;;;;38.25;20.81;93955.50;4935296;28;20050;-80
2021/06/06 06:33:32;;;;;;;7.07;5.97;;;;;;;39.15;19.87;93950.97;4942042;28;20019;-83
2021/06/06 06:35:57;;;;;;;12.25;6.47;;;;;;;39.00;19.81;93964.69;4940470;28;20066;-81
2021/06/06 06:38:24;;;;;;;8.45;5.60;;;;;;;39.02;20.25;93961.47;4937005;28;20496;-83
2021/06/06 06:40:49;;;;;;;7.15;5.28;;;;;;;39.70;19.67;93966.03;4941347;28;20057;-80
2021/06/06 06:43:15;;;;;;;8.68;5.68;;;;;;;40.74;18.21;93955.94;4939308;28;20984;-83
2021/06/06 06:45:42;;;;;;;8.77;6.60;;;;;;;40.40;18.88;93966.41;4941227;28;20034;-82
2021/06/06 06:48:16;;;;;;;7.85;5.43;;;;;;;39.64;19.26;93967.91;4931399;28;20039;-83
2021/06/06 06:50:42;;;;;;;6.72;5.68;;;;;;;40.03;18.80;93962.41;4935471;28;20093;-81
2021/06/06 06:53:09;;;;;;;9.57;5.78;;;;;;;40.37;19.39;93972.91;4934650;28;20110;-83
2021/06/06 06:55:34;;;;;;;8.75;6.25;;;;;;;40.04;18.82;93963.94;4929639;28;20044;-83
2021/06/06 06:58:02;;;;;;;10.93;5.97;;;;;;;39.64;19.12;93967.91;4934248;28;20547;-82
2021/06/06 07:00:35;;;;;;;9.32;6.50;;;;;;;39.35;19.25;93965.00;4939791;28;20061;-83
2021/06/06 07:03:01;;;;;;;9.10;6.03;;;;;;;38.78;20.02;93950.34;4939327;28;20081;-85
2021/06/06 07:05:27;;;;;;;9.93;5.88;;;;;;;39.25;19.78;93966.25;4935464;28;20043;-87
2021/06/06 07:07:53;;;;;;;9.82;6.07;;;;;;;39.47;19.40;93966.78;4937506;28;20059;-87
2021/06/06 07:10:23;;;;;;;6.15;5.55;;;;;;;39.70;19.47;93957.72;4937440;28;20054;-88
2021/06/06 07:12:52;;;;;;;8.70;5.25;;;;;;;40.33;18.62;93964.00;4937805;28;20031;-88
2021/06/06 07:15:18;;;;;;;6.15;5.55;;;;;;;41.38;17.86;93953.91;4931465;28;20057;-87
2021/06/06 07:17:44;;;;;;;9.30;5.38;;;;;;;42.46;17.17;93954.75;4921528;28;20527;-89
2021/06/06 07:20:14;;;;;;;6.75;6.10;;;;;;;41.47;17.71;93951.03;4934157;28;20051;-88
2021/06/06 07:22:40;;;;;;;7.13;5.05;;;;;;;41.74;17.67;93957.41;4931611;28;20077;-87
2021/06/06 07:25:08;;;;;;;9.40;5.50;;;;;;;42.47;17.15;93961.81;4929399;28;20122;-84
2021/06/06 07:27:36;;;;;;;7.97;4.93;;;;;;;42.31;17.47;93963.94;4935081;28;20027;-91
2021/06/06 07:30:11;;;;;;;14.05;5.82;;;;;;;41.67;17.46;93977.25;4907839;28;20062;-86
2021/06/06 07:32:37;;;;;;;9.70;5.60;;;;;;;41.27;18.41;93970.38;4930039;28;20051;-87
2021/06/06 07:35:05;;;;;;;10.43;5.72;;;;;;;41.38;18.39;93972.56;4935592;28;20057;-88
2021/06/06 07:37:31;;;;;;;7.38;6.07;;;;;;;41.27;17.83;93970.38;4896918;29;20170;-87
2021/06/06 07:39:59;;;;;;;7.90;5.95;;;;;;;40.37;18.24;93964.59;4920537;28;20105;-85
2021/06/06 07:42:25;;;;;;;5.93;5.35;;;;;;;40.85;18.31;93948.56;4939836;28;20023;-86
2021/06/06 07:44:51;;;;;;;8.57;5.90;;;;;;;40.59;18.62;93945.59;4934555;28;20051;-86
2021/06/06 07:47:16;;;;;;;6.50;5.75;;;;;;;40.99;18.15;93960.88;4936760;28;20494;-86
2021/06/06 07:49:42;;;;;;;9.00;5.38;;;;;;;41.79;18.38;93965.03;4938098;28;20039;-84
2021/06/06 07:52:08;;;;;;;11.65;5.50;;;;;;;41.92;17.73;93962.72;4938440;28;20025;-86
2021/06/06 07:54:36;;;;;;;6.15;5.55;;;;;;;42.17;17.69;93967.56;4936344;28;20027;-86
2021/06/06 07:57:03;;;;;;;8.13;5.90;;;;;;;42.50;17.45;93955.28;4925237;28;20130;-85
2021/06/06 07:59:33;;;;;;;12.63;5.30;;;;;;;43.62;16.94;93968.81;4929965;28;20039;-86
2021/06/06 08:01:58;;;;;;;11.68;5.80;;;;;;;44.24;16.17;93956.66;4933851;28;20078;-82
2021/06/06 08:04:24;;;;;;;17.38;5.30;;;;;;;45.11;15.73;93964.19;4931381;28;20051;-87
2021/06/06 08:06:49;;;;;;;10.30;5.47;;;;;;;45.66;15.35;93958.50;4937430;28;20037;-86
2021/06/06 08:09:15;;;;;;;12.40;4.72;;;;;;;44.67;15.62;93960.06;4933654;28;20758;-84
2021/06/06 08:11:41;;;;;;;10.07;5.03;;;;;;;44.99;15.53;93962.63;4935333;28;20412;-88
2021/06/06 08:14:10;;;;;;;8.02;4.35;;;;;;;45.27;15.48;93949.44;4935000;28;20575;-86
2021/06/06 08:16:36;;;;;;;10.15;4.80;;;;;;;44.38;15.81;93950.13;4935091;28;20051;-89
2021/06/06 08:19:04;;;;;;;7.35;4.43;;;;;;;45.53;15.27;93941.53;4936750;28;20043;-83
2021/06/06 08:21:38;;;;;;;10.98;4.85;;;;;;;45.70;14.86;93936.66;4933705;28;20042;-86
2021/06/06 08:24:06;;;;;;;4.68;4.15;;;;;;;45.49;15.03;93937.50;4912734;28;20040;-85
2021/06/06 08:26:31;;;;;;;11.55;4.80;;;;;;;45.41;15.11;93931.66;4933577;28;20212;-87
2021/06/06 08:28:57;;;;;;;6.88;4.65;;;;;;;45.19;15.45;93934.50;4934783;28;20649;-84
2021/06/06 08:31:29;;;;;;;4.60;4.20;;;;;;;44.90;15.83;93938.56;4931521;28;20074;-84
2021/06/06 08:33:57;;;;;;;7.95;4.55;;;;;;;45.10;15.27;93941.09;4932633;28;20037;-84
2021/06/06 08:36:38;;;;;;;9.13;4.88;;;;;;;45.33;16.06;93927.88;4936753;28;20572;-86
2021/06/06 08:39:23;;;;;;;9.45;4.93;;;;;;;46.07;14.95;93929.94;4934746;28;20057;-87
2021/06/06 08:42:08;;;;;;;10.32;4.57;;;;;;;45.37;15.47;93925.56;4936502;28;20050;-84
2021/06/06 08:44:35;;;;;;;6.32;4.68;;;;;;;45.06;15.95;93925.91;4932923;28;20066;-88
2021/06/06 08:47:00;;;;;;;4.95;4.43;;;;;;;44.54;16.06;93926.34;4920427;28;20051;-87
2021/06/06 08:49:48;;;;;;;10.68;4.43;;;;;;;44.71;16.03;93926.41;4937721;28;20043;-86
2021/06/06 08:52:37;;;;;;;5.38;3.42;;;;;;;45.05;15.46;93924.38;4939436;28;20042;-87
2021/06/06 08:55:27;;;;;;;12.40;5.18;;;;;;;44.26;15.64;93917.19;4939461;28;20035;-85
2021/06/06 08:58:02;;;;;;;4.28;3.78;;;;;;;43.70;16.04;93911.41;4941685;28;20062;-84
2021/06/06 09:00:35;;;;;;;5.57;4.00;;;;;;;43.77;16.67;93908.16;4938321;28;20043;-89
2021/06/06 09:03:23;;;;;;;6.37;3.53;;;;;;;43.20;16.56;93923.00;4926566;28;20050;-85
2021/06/06 09:05:58;;;;;;;8.95;4.30;;;;;;;43.42;16.06;93907.72;4936635;28;20198;-88
2021/06/06 09:08:25;;;;;;;10.63;4.53;;;;;;;42.83;16.96;93900.00;4940262;28;20067;-86
2021/06/06 09:10:54;;;;;;;21.17;5.20;;;;;;;41.88;17.36;93895.56;4938301;28;20558;-82
2021/06/06 09:13:25;;;;;;;4.97;4.47;;;;;;;41.04;18.25;93908.31;4939593;28;20119;-85
2021/06/06 09:15:56;;;;;;;7.53;4.90;;;;;;;39.94;20.12;93907.13;4940209;28;20118;-84
2021/06/06 09:18:24;;;;;;;6.10;5.30;;;;;;;39.38;19.57;93906.03;4942433;28;20491;-89
2021/06/06 09:20:51;;;;;;;11.75;5.88;;;;;;;38.65;20.78;93908.34;4918974;28;20539;-85
2021/06/06 09:23:19;;;;;;;10.30;6.82;;;;;;;37.59;21.84;93900.03;4937299;28;20066;-90
2021/06/06 09:25:58;;;;;;;8.60;6.55;;;;;;;37.40;21.70;93899.22;4939103;28;20785;-86
2021/06/06 09:28:26;;;;;;;8.27;5.80;;;;;;;36.99;22.56;93891.50;4938779;28;20118;-87
2021/06/06 09:31:07;;;;;;;6.53;5.80;;;;;;;36.93;21.81;93883.06;4942930;28;20027;-93
2021/06/06 09:33:49;;;;;;;6.93;6.35;;;;;;;37.03;23.85;93881.84;4943155;28;20039;-91
2021/06/06 09:36:40;;;;;;;6.50;5.88;;;;;;;36.68;23.26;93872.25;4934322;28;20051;-88
2021/06/06 09:39:08;;;;;;;9.50;6.60;;;;;;;36.00;23.61;93879.53;4940154;28;20041;-91
2021/06/06 09:41:38;;;;;;;8.85;6.18;;;;;;;35.45;24.20;93876.34;4939624;28;20078;-88
2021/06/06 09:44:15;;;;;;;8.98;5.75;;;;;;;35.11;24.94;93887.31;4936178;28;20527;-85
2021/06/06 09:46:46;;;;;;;7.15;6.25;;;;;;;35.26;24.55;93877.41;4941851;28;20050;-89
2021/06/06 09:49:14;;;;;;;6.07;5.57;;;;;;;35.27;25.33;93880.94;4939730;28;20019;-86
2021/06/06 09:51:40;;;;;;;6.97;6.28;;;;;;;34.04;24.45;93872.56;4941887;28;20085;-88
2021/06/06 09:54:08;;;;;;;8.15;5.90;;;;;;;33.88;25.17;93871.44;4940030;28;20039;-87
2021/06/06 09:56:34;;;;;;;7.63;6.50;;;;;;;34.01;25.64;93862.50;4939347;28;20043;-86
2021/06/06 09:59:18;;;;;;;7.18;6.47;;;;;;;33.98;25.80;93874.31;4939713;28;20051;-88
2021/06/06 10:02:17;;;;;;;11.60;6.57;;;;;;;33.64;26.79;93877.59;4924900;28;20122;-85
2021/06/06 10:04:45;;;;;;;7.50;6.53;;;;;;;33.34;26.35;93865.09;4938518;28;20051;-89
2021/06/06 10:07:31;;;;;;;10.35;6.32;;;;;;;33.49;27.58;93869.75;4939968;28;20108;-89
2021/06/06 10:09:58;;;;;;;7.28;6.60;;;;;;;33.50;25.62;93856.84;4939175;28;20495;-87
2021/06/06 10:12:39;;;;;;;6.85;6.22;;;;;;;33.14;26.33;93856.97;4942903;28;20050;-87
2021/06/06 10:15:16;;;;;;;7.05;6.00;;;;;;;33.02;26.16;93855.72;4937721;28;20101;-86
2021/06/06 10:17:44;;;;;;;9.35;6.75;;;;;;;33.10;27.38;93848.84;4940040;28;20653;-89
2021/06/06 10:20:14;;;;;;;7.22;6.53;;;;;;;33.03;28.48;93840.84;4937655;28;20520;-91
2021/06/06 10:22:46;;;;;;;7.93;6.13;;;;;;;32.59;27.73;93827.84;4938893;28;20373;-87
2021/06/06 10:25:18;;;;;;;6.90;6.30;;;;;;;32.84;27.59;93833.47;4937600;28;20023;-89
2021/06/06 10:27:56;;;;;;;6.85;5.78;;;;;;;32.50;27.49;93808.53;4935823;28;20022;-87
2021/06/06 10:30:41;;;;;;;8.77;6.28;;;;;;;32.48;27.52;93827.31;4938704;28;20407;-88
2021/06/06 10:33:30;;;;;;;11.63;6.30;;;;;;;32.50;27.62;93830.41;4937203;28;20043;-92
2021/06/06 10:36:00;;;;;;;9.25;7.15;;;;;;;32.38;28.23;93839.28;4937977;28;20047;-84
2021/06/06 10:38:27;;;;;;;7.10;6.43;;;;;;;32.09;29.16;93839.91;4940254;28;20538;-90
2021/06/06 10:40:58;;;;;;;8.45;6.47;;;;;;;31.50;29.07;93830.97;4938586;28;20051;-89
2021/06/06 10:43:45;;;;;;;7.47;6.72;;;;;;;31.63;29.35;93834.63;4938437;28;20158;-87
2021/06/06 10:46:24;;;;;;;7.63;7.00;;;;;;;31.98;29.62;93828.44;4936476;28;20156;-87
2021/06/06 10:49:18;;;;;;;7.80;7.03;;;;;;;31.93;28.98;93831.66;4940790;28;20063;-89
2021/06/06 10:51:59;;;;;;;9.15;7.70;;;;;;;31.79;29.29;93815.56;4933875;28;20102;-90
2021/06/06 10:54:31;;;;;;;8.35;7.47;;;;;;;31.61;29.21;93828.84;4940232;28;20035;-85
2021/06/06 10:57:10;;;;;;;8.02;7.22;;;;;;;31.48;29.14;93817.72;4936756;28;20558;-88
2021/06/06 10:59:50;;;;;;;7.45;6.82;;;;;;;31.49;29.51;93818.50;4932928;28;20134;-88
2021/06/06 11:02:50;;;;;;;8.05;7.25;;;;;;;31.39;29.64;93810.09;4939115;28;20122;-86
2021/06/06 11:05:34;;;;;;;9.55;7.85;;;;;;;31.50;29.97;93811.84;4939447;28;21064;-89
2021/06/06 11:08:00;;;;;;;8.63;7.65;;;;;;;31.48;29.89;93806.03;4937625;28;20643;-90
2021/06/06 11:10:25;;;;;;;7.70;7.10;;;;;;;31.87;30.33;93811.47;4938557;28;20036;-89
2021/06/06 11:12:54;;;;;;;7.20;6.43;;;;;;;31.89;29.52;93814.56;4940622;28;20388;-89
2021/06/06 11:15:31;;;;;;;11.25;6.55;;;;;;;31.91;28.96;93814.16;4938813;28;20574;-87
2021/06/06 11:18:15;;;;;;;8.27;6.75;;;;;;;31.59;29.73;93809.34;4938041;28;20043;-87
2021/06/06 11:21:02;;;;;;;8.23;7.25;;;;;;;31.59;30.22;93809.34;4937864;28;20521;-90
2021/06/06 11:23:34;;;;;;;7.75;6.97;;;;;;;31.64;29.73;93803.41;4931758;28;20058;-86
2021/06/06 11:26:00;;;;;;;8.32;6.75;;;;;;;31.23;29.90;93790.13;4939580;28;20488;-91
2021/06/06 11:28:31;;;;;;;7.07;6.10;;;;;;;31.48;30.08;93806.81;4933194;28;20101;-86
2021/06/06 11:30:57;;;;;;;6.57;5.97;;;;;;;31.51;29.61;93795.06;4930405;28;20079;-90
2021/06/06 11:33:38;;;;;;;6.88;6.18;;;;;;;31.55;30.90;93811.38;4935936;28;20558;-89
2021/06/06 11:36:05;;;;;;;7.18;6.47;;;;;;;31.57;29.86;93801.56;4936086;28;20051;-90
2021/06/06 11:38:40;;;;;;;9.82;7.03;;;;;;;31.42;29.82;93787.41;4935955;28;20480;-89
2021/06/06 11:41:23;;;;;;;8.90;7.18;;;;;;;31.68;29.71;93793.94;4936092;28;20050;-90
2021/06/06 11:43:53;;;;;;;6.60;5.97;;;;;;;31.55;29.04;93786.78;4933563;28;20578;-84
2021/06/06 11:46:18;;;;;;;7.32;5.75;;;;;;;31.79;28.46;93790.97;4938072;28;20051;-86
2021/06/06 11:49:05;;;;;;;6.10;5.50;;;;;;;31.75;27.75;93787.56;4937366;28;20033;-86